Eastlake, Colorado
Current Conditions -  °F | °C
As of 6:55 AM on Friday 31 Oct 2014 (Local Time) from KEIK Reporting Station
Clear Clear  
Wind Chill: -5°   Ceiling: Unl
Heat Index: -1°   Visibility: 10mi
Dew Point: -2°   Wind: 6mph
Humidity: 93%   Direction: 290°WNW
Pressure: 30.34"   Gusts: NA
Location:  39.92°N, 104.96°W
Report Text: KEIK 311255Z AUTO 29005KT 10SM CLR M01/M02 A3034 RMK AO2 T10141024
Loading
Personal Weather Stations






























Interactive Weather Map
Tropical Storm Tracking
New forecast layout! Learn more

10-Day Weather Forecast

Advertisements
Track Severe Weather on mobile